• Join FlightAware (Why Join?)
  • Login
  • US Flag 
05:40AM EDT


 

Airport Tracker/Info


-or-


 

Live Flight TrackerFlight Track Log ✈ DAL858 ✈ 27-Jul-2013 ✈ KMSP - KBOS

Flight Track Log - Related Links

Times and Time Zones

All times are in EDT time to prevent confusion due to time zone crossing. See the DAL858 flight status page for this flight to view local times or setup timezone preferences in your user account.

Time Position Orientation Groundspeed Altitude Reporting Facility
EDT Latitude Longitude Course Direction KTS MPH feet Rate Location/Type
04:23PM 44.9500 -93.2333 65° Northeast 200 230 4,100  Level Minneapolis TRACON
04:24PM 45.0000 -93.1667 43° Northeast 256 295 6,900 2,880 Climbing Minneapolis TRACON
04:25PM 45.0028 -92.7557 70° East  Level FlightAware Approximate
04:25PM 45.0561 -93.1000 40° Northeast 264 304 10,200  Level Minneapolis Center
04:26PM 45.0472 -92.6010 66° East  Level FlightAware Approximate
04:26PM 45.1028 -92.9975 57° Northeast 327 376 11,900  Level Minneapolis Center
04:27PM 45.0925 -92.4467 70° East  Level FlightAware Approximate
04:28PM 45.1271 -92.2887 68° East  Level FlightAware Approximate
04:28PM 45.1417 -92.7997 74° East 378 435 14,900  Level Minneapolis Center
04:29PM 45.1720 -92.1339 65° Northeast  Level FlightAware Approximate
04:29PM 45.1708 -92.6508 74° East 392 451 17,100  Level Minneapolis Center
04:30PM 45.2008 -92.4997 74° East 397 457 19,100 1,860 Climbing Minneapolis Center
04:31PM 45.2314 -92.3431 74° East 411 473 21,000 1,740 Climbing Minneapolis Center
04:32PM 45.2619 -92.1783 75° East 427 491 22,700 1,620 Climbing Minneapolis Center
04:33PM 45.2914 -92.0106 76° East 438 504 24,400 1,620 Climbing Minneapolis Center
04:34PM 45.3294 -91.8075 75° East 444 511 26,100 1,260 Climbing Minneapolis Center
04:35PM 45.3606 -91.6294 76° East 459 528 27,300 1,080 Climbing Minneapolis Center
04:36PM 45.3989 -91.4133 76° East 469 540 28,700 1,440 Climbing Minneapolis Center
04:37PM 45.4336 -91.2147 76° East 475 547 30,400 1,500 Climbing Minneapolis Center
04:38PM 45.4647 -91.0339 76° East 473 544 31,800 1,200 Climbing Minneapolis Center
04:39PM 45.4958 -90.8531 76° East 472 543 33,000 1,020 Climbing Minneapolis Center
04:40PM 45.5278 -90.6739 76° East 470 541 34,000 900 Climbing Minneapolis Center
04:41PM 45.5578 -90.4917 77° East 473 544 34,900 840 Climbing Minneapolis Center
04:42PM 45.5883 -90.3097 76° East 473 544 35,800 720 Climbing Minneapolis Center
04:43PM 45.6247 -90.0925 76° East 471 542 36,500 540 Climbing Minneapolis Center
04:44PM 45.6547 -89.9078 77° East 477 549 37,000 240 Climbing Minneapolis Center
04:46PM 45.6861 -89.7106 77° East 474 545 37,000  Level Minneapolis Center
04:47PM 45.7156 -89.5261 77° East 474 545 37,000  Level Minneapolis Center
04:48PM 45.7456 -89.3408 77° East 476 548 37,000  Level Minneapolis Center
04:49PM 45.7744 -89.1539 77° East 479 551 37,000  Level Minneapolis Center
04:50PM 45.8025 -88.9692 78° East 476 548 37,000  Level Minneapolis Center
04:51PM 45.8317 -88.7736 78° East 478 550 37,000  Level Minneapolis Center
04:52PM 45.8600 -88.5869 78° East 481 554 37,000  Level Minneapolis Center
04:53PM 45.8878 -88.4000 78° East 482 555 37,000  Level Minneapolis Center
04:54PM 45.9208 -88.1750 78° East 481 554 37,000  Level Minneapolis Center
04:55PM 45.9467 -88.0022 78° East 476 548 37,000  Level Minneapolis Center
04:56PM 45.9719 -87.8131 79° East 481 554 37,000  Level Minneapolis Center
04:57PM 45.9992 -87.6233 78° East 484 557 37,000  Level Minneapolis Center
04:58PM 46.0314 -87.3958 78° East 485 558 37,000  Level Minneapolis Center
04:59PM 46.0572 -87.2056 79° East 486 559 37,000  Level Minneapolis Center
05:00PM 46.0833 -87.0150 79° East 485 558 37,000  Level Minneapolis Center
05:01PM 46.1089 -86.8264 79° East 482 555 37,000  Level Minneapolis Center
05:02PM 46.1333 -86.6358 79° East 482 555 37,000  Level Minneapolis Center
05:03PM 46.1583 -86.4472 79° East 480 552 37,000  Level Minneapolis Center
05:04PM 46.1875 -86.2181 80° East 483 556 37,000  Level Minneapolis Center
05:05PM 46.2114 -86.0261 80° East 485 558 37,000  Level Minneapolis Center
05:06PM 46.2353 -85.8347 80° East 485 558 37,000  Level Minneapolis Center
05:07PM 46.2583 -85.6414 80° East 486 559 37,000  Level Minneapolis Center
05:08PM 46.2822 -85.4536 80° East 480 552 37,000  Level Minneapolis Center
05:09PM 46.3017 -85.2625 82° East 479 551 37,000  Level Minneapolis Center
05:10PM 46.2967 -85.0733 92° East 471 542 37,000  Level Minneapolis Center
05:11PM 46.2992 -84.8483 89° East 468 539 37,000  Level Minneapolis Center
05:12PM 46.3019 -84.6583 89° East 469 540 37,000  Level Minneapolis Center
05:13PM 46.3039 -84.4700 89° East 470 541 37,000  Level Minneapolis Center
05:14PM 46.3047 -84.2783 90° East 472 543 37,000  Level Minneapolis Center
05:16PM 46.2833 -84.0000 96° East 480 552 37,000  Level Toronto Center
05:17PM 46.2833 -83.8000 90° East 480 552 37,000  Level Toronto Center
05:18PM 46.2833 -83.6167 90° East 480 552 37,000  Level Toronto Center
05:19PM 46.2667 -83.4167 97° East 480 552 37,000  Level Toronto Center
05:20PM 46.2833 -83.2333 82° East 480 552 37,000  Level Toronto Center
05:21PM 46.2667 -83.0333 97° East 490 564 37,000  Level Toronto Center
05:22PM 46.2667 -82.8333 90° East 490 564 37,000  Level Toronto Center
05:23PM 46.2667 -82.6500 90° East 490 564 37,000  Level Toronto Center
05:24PM 46.2500 -82.4500 97° East 490 564 37,000  Level Toronto Center
05:25PM 46.2500 -82.2667 90° East 480 552 37,000  Level Toronto Center
05:26PM 46.2333 -82.0667 97° East 480 552 37,000  Level Toronto Center
05:27PM 46.2500 -81.8667 83° East 480 552 37,000  Level Toronto Center
05:28PM 46.2333 -81.6833 97° East 480 552 37,000  Level Toronto Center
05:29PM 46.2333 -81.4833 90° East 480 552 37,000  Level Toronto Center
05:30PM 46.2167 -81.3000 97° East 480 552 37,000  Level Toronto Center
05:31PM 46.2000 -81.1000 97° East 480 552 37,000  Level Toronto Center
05:32PM 46.2000 -80.9167 90° East 480 552 37,000  Level Toronto Center
05:33PM 46.2000 -80.7167 90° East 480 552 37,000  Level Toronto Center
05:34PM 46.2000 -80.5167 90° East 490 564 37,000  Level Toronto Center
05:35PM 46.1833 -80.3333 97° East 480 552 37,000  Level Toronto Center
05:36PM 46.1667 -80.1333 97° East 480 552 37,000  Level Toronto Center
05:37PM 46.1667 -79.9500 90° East 480 552 37,000  Level Toronto Center
05:38PM 46.1500 -79.7500 97° East 480 552 37,000  Level Toronto Center
05:39PM 46.1500 -79.5667 90° East 480 552 37,000  Level Toronto Center
05:40PM 46.1333 -79.3667 97° East 480 552 37,000  Level Toronto Center
05:41PM 46.1333 -79.1667 90° East 480 552 37,000  Level Toronto Center
05:42PM 46.1167 -78.9833 97° East 480 552 37,000  Level Toronto Center
05:43PM 46.1000 -78.7833 97° East 480 552 37,000  Level Toronto Center
05:44PM 46.1000 -78.6000 90° East 480 552 37,000  Level Toronto Center
05:45PM 46.0667 -78.4000 103° East 480 552 37,000  Level Toronto Center
05:46PM 46.0667 -78.2167 90° East 480 552 37,000  Level Toronto Center
05:47PM 46.0500 -78.0500 98° East 480 552 37,000  Level Toronto Center
05:48PM 46.0333 -77.8333 96° East 490 564 37,000  Level Toronto Center
05:49PM 46.0333 -77.6333 90° East 490 564 37,000  Level Toronto Center
05:50PM 46.0167 -77.4500 97° East 490 564 37,000  Level Toronto Center
05:51PM 46.0000 -77.2500 97° East 480 552 37,000  Level Toronto Center
05:52PM 45.9833 -77.0667 97° East 490 564 37,000  Level Toronto Center
05:53PM 45.9833 -76.8500 90° East 490 564 37,000  Level Toronto Center
05:54PM 45.9667 -76.6833 98° East 490 564 37,000  Level Toronto Center
05:55PM 45.9333 -76.4833 103° East 490 564 37,000  Level Toronto Center
05:56PM 45.9333 -76.2833 90° East 490 564 37,000  Level Toronto Center
05:57PM 45.9167 -76.0833 97° East 490 564 37,000  Level Toronto Center
05:58PM 45.9000 -75.9000 97° East 490 564 37,000  Level Toronto Center
05:59PM 45.8667 -75.7000 103° East 480 552 37,000  Level Toronto Center
06:00PM 45.8000 -75.5500 122° Southeast 470 541 37,000  Level Toronto Center
06:01PM 45.7167 -75.4000 128° Southeast 470 541 37,000  Level Toronto Center
06:02PM 45.6500 -75.2667 126° Southeast 460 529 37,000  Level Montreal Center
06:03PM 45.5833 -75.1333 126° Southeast 460 529 37,000 180 Level Montreal Center
06:04PM 45.5167 -74.9667 120° Southeast 460 529 37,400 600 Climbing Montreal Center
06:05PM 45.4500 -74.8167 122° Southeast 460 529 38,300 780 Climbing Montreal Center
06:06PM 45.3833 -74.6500 120° Southeast 460 529 39,000 300 Climbing Montreal Center
06:07PM 45.3167 -74.5167 125° Southeast 460 529 39,000  Level Montreal Center
06:08PM 45.2500 -74.3500 120° Southeast 460 529 39,000  Level Montreal Center
06:09PM 45.1833 -74.2167 125° Southeast 470 541 39,000  Level Montreal Center
06:10PM 45.1000 -74.0500 125° Southeast 460 529 39,000 540 Level Montreal Center
06:10PM 45.6167 -68.6333 80° East 400 460 40,000  Climbing Montreal Center
06:11PM 45.0053 -73.8169 262° West 460 529 39,000 -600 Descending Boston Center
06:12PM 44.9339 -73.6656 124° Southeast 460 529 39,000  Level Boston Center
06:13PM 44.8625 -73.5119 123° Southeast 460 529 39,000  Level Boston Center
06:14PM 44.7889 -73.3614 125° Southeast 470 541 39,000  Level Boston Center
06:15PM 44.7172 -73.2025 122° Southeast 475 547 39,000  Level Boston Center
06:16PM 44.6472 -73.0497 123° Southeast 475 547 39,000  Level Boston Center
06:17PM 44.5708 -72.8947 125° Southeast 481 554 39,000  Level Boston Center
06:18PM 44.4964 -72.7456 125° Southeast 475 547 39,000 -120 Level Boston Center
06:19PM 44.4300 -72.6086 124° Southeast 475 547 38,800 -660 Descending Boston Center
06:20PM 44.3572 -72.4633 125° Southeast 469 540 37,700 -1,140 Descending Boston Center
06:21PM 44.2822 -72.3094 124° Southeast 480 552 36,600 -900 Descending Boston Center
06:22PM 44.2089 -72.1619 125° Southeast 480 552 36,000 -720 Descending Boston Center
06:23PM 44.1375 -72.0092 123° Southeast 474 545 35,200 -1,920 Descending Boston Center
06:24PM 44.0578 -71.8567 126° Southeast 474 545 32,200 -2,820 Descending Boston Center
06:25PM 43.9819 -71.7044 125° Southeast 480 552 29,600 -2,880 Descending Boston Center
06:26PM 43.9078 -71.5525 124° Southeast 480 552 26,500 -2,700 Descending Boston Center
06:27PM 43.8231 -71.3897 126° Southeast 480 552 24,200 -1,200 Descending Boston Center
06:28PM 43.7467 -71.2417 126° Southeast 475 547 24,200 -780 Level Boston Center
06:29PM 43.6719 -71.0939 125° Southeast 475 547 22,700 -1,380 Descending Boston Center
06:30PM 43.6058 -70.9519 123° Southeast 462 532 21,500 -1,620 Descending Boston Center
06:31PM 43.5394 -70.8247 126° Southeast 433 498 19,500 -2,040 Descending Boston Center
06:32PM 43.4708 -70.7036 128° Southeast 407 468 17,500 -2,040 Descending Boston Center
06:33PM 43.4050 -70.6111 134° Southeast 385 443 15,500 -2,100 Descending Boston Center
06:34PM 43.3122 -70.5597 158° South 366 421 13,300 -2,220 Descending Boston Center
06:35PM 43.2053 -70.5117 162° South 361 415 11,100 -1,200 Descending Boston Center
06:36PM 43.1253 -70.4744 161° South 361 415 11,000 -60 Descending Boston Center
06:37PM 43.0225 -70.4264 161° South 356 410 11,000  Level Boston Center
06:38PM 42.9383 -70.3894 162° South 356 410 11,000  Level Boston Center
06:39PM 42.8394 -70.3392 160° South 350 403 11,000  Level Boston Center
06:40PM 42.7492 -70.2997 162° South 350 403 11,000  Level Boston Center
06:41PM 42.6733 -70.2628 160° South 325 374 11,000 -360 Level Boston Center
06:42PM 42.5983 -70.2625 180° South 276 318 10,400 -1,560 Descending Boston Center
06:43PM 42.5433 -70.3294 222° Southwest 252 290 7,900 -2,520 Descending Boston Center
06:44PM 42.4883 -70.4044 225° Southwest 264 304 5,400 -1,620 Descending Boston Center
06:45PM 42.4500 -70.4761 234° Southwest 261 300 4,700 -720 Descending Boston Center
06:46PM 42.4369 -70.5581 258° West 235 270 4,000 -240 Descending Boston Center
06:48PM 42.4167 -70.6833 258° West 216 249 4,100 -300 Climbing KA90
06:49PM 42.4000 -70.7500 251° West 217 250 3,300 -960 Descending KA90
06:50PM 42.3833 -70.8333 255° West 208 239 2,200 -1,020 Descending KA90
06:51PM 42.3833 -70.9000 270° West 182 209 1,300 -840 Descending KA90
06:52PM 42.3667 -70.9500 246° West 125 144 600 -720 Descending KA90